KBEH/BEH METAR and TAF weather

Enter ICAO airport designator
Station Type Date Time Source
KBEH METAR 2022/06/29 00:53 UTC NOAA

KBEH 290053Z AUTO 18003KT 10SM CLR 26/10 A3011 RMK AO2 SLP192 T02560100


Station Type Date Time Source
KBEH Decoded METAR 2022/06/29 00:53 UTC NOAA

SOUTHWEST MICHIGAN REGIONAL, MI, United States (KBEH) 42-08N 86-25W 191M
Jun 28, 2022 - 08:53 PM EDT / 2022.06.29 0053 UTC
Wind: from the S (180 degrees) at 3 MPH (3 KT):0
Visibility: 10 mile(s):0
Sky conditions: clear
Temperature: 78.1 F (25.6 C)
Dew Point: 50.0 F (10.0 C)
Relative Humidity: 37%
Pressure (altimeter): 30.11 in. Hg (1019 hPa)
ob: KBEH 290053Z AUTO 18003KT 10SM CLR 26/10 A3011 RMK AO2 SLP192 T02560100
cycle: 1

Station Type Date Time Source
KBEH TAF UTC NOAA

Error!

Example: see airport list